Time;durP1;ratioP1;P1;durP2;ratioP2;P2;SDS_P1;SDS_P2;PMS_P1;PMS_P2;Temp;Humidity;BMP_temperature;BMP_pressure;BME280_temperature;BME280_humidity;BME280_pressure;Samples;Min_cycle;Max_cycle;Signal;HPM_P1;HPM_P2
2024/01/31 00:01:07;;;;;;;11.68;1.83;;;5.50;99.90;;;;;;5040036;28;20806;-69
2024/01/31 00:03:33;;;;;;;10.40;2.33;;;5.50;99.90;;;;;;5023591;28;20051;-70
2024/01/31 00:05:59;;;;;;;12.18;1.55;;;5.50;99.90;;;;;;5008376;28;20368;-69
2024/01/31 00:08:24;;;;;;;15.55;1.98;;;5.50;99.90;;;;;;5019256;28;20362;-69
2024/01/31 00:10:53;;;;;;;10.07;1.67;;;5.50;99.90;;;;;;5024375;28;20045;-68
2024/01/31 00:13:19;;;;;;;10.55;1.83;;;5.50;99.90;;;;;;5042595;28;20116;-69
2024/01/31 00:15:45;;;;;;;9.27;1.38;;;5.50;99.90;;;;;;5025904;28;20045;-68
2024/01/31 00:18:10;;;;;;;11.80;1.80;;;5.50;99.90;;;;;;5023617;28;20061;-69
2024/01/31 00:20:37;;;;;;;12.05;1.95;;;5.50;99.90;;;;;;5025128;28;20651;-68
2024/01/31 00:23:03;;;;;;;13.20;1.40;;;5.50;99.90;;;;;;5024808;28;20045;-69
2024/01/31 00:25:29;;;;;;;12.05;1.20;;;5.50;99.90;;;;;;5025554;28;20046;-68
2024/01/31 00:27:55;;;;;;;6.88;1.20;;;5.50;99.90;;;;;;5024804;28;20462;-68
2024/01/31 00:30:21;;;;;;;7.53;1.00;;;5.60;99.90;;;;;;5024865;28;20045;-68
2024/01/31 00:32:46;;;;;;;10.15;1.40;;;5.50;99.90;;;;;;5023567;28;20049;-69
2024/01/31 00:35:12;;;;;;;10.45;1.40;;;5.50;99.90;;;;;;5023511;28;20489;-69
2024/01/31 00:37:38;;;;;;;8.23;1.27;;;5.40;99.90;;;;;;5007217;28;20128;-69
2024/01/31 00:40:05;;;;;;;9.77;1.10;;;5.50;99.90;;;;;;5024806;28;20518;-69
2024/01/31 00:42:31;;;;;;;4.63;1.02;;;5.40;99.90;;;;;;5022312;28;20197;-69
2024/01/31 00:44:57;;;;;;;5.45;0.65;;;5.90;99.90;;;;;;5025183;28;20406;-68
2024/01/31 00:47:23;;;;;;;4.10;0.65;;;5.40;99.90;;;;;;5008488;28;20042;-69
2024/01/31 00:49:49;;;;;;;9.23;1.02;;;5.40;99.90;;;;;;5024487;28;20490;-69
2024/01/31 00:52:16;;;;;;;8.82;0.73;;;5.30;99.90;;;;;;5023432;28;20041;-69
2024/01/31 00:54:42;;;;;;;4.95;0.80;;;5.40;99.90;;;;;;5024866;28;20459;-69
2024/01/31 00:57:08;;;;;;;4.68;0.80;;;5.40;99.90;;;;;;5008111;28;20155;-68
2024/01/31 00:59:34;;;;;;;12.10;1.35;;;5.60;99.90;;;;;;5008459;28;20114;-68
2024/01/31 01:01:59;;;;;;;3.47;0.80;;;5.40;99.90;;;;;;5007115;28;20739;-69
2024/01/31 01:04:25;;;;;;;6.03;0.82;;;5.40;99.90;;;;;;5024370;28;20462;-69
2024/01/31 01:06:51;;;;;;;7.60;0.80;;;5.40;99.90;;;;;;5023975;28;20049;-68
2024/01/31 01:09:16;;;;;;;10.82;0.65;;;5.30;99.90;;;;;;5024268;28;20053;-68
2024/01/31 01:11:42;;;;;;;10.10;1.00;;;5.30;99.90;;;;;;5019827;28;20128;-69
2024/01/31 01:14:08;;;;;;;10.68;0.93;;;5.40;99.90;;;;;;5022413;28;22644;-68
2024/01/31 01:16:33;;;;;;;5.00;0.88;;;5.40;99.90;;;;;;5024394;28;20056;-69
2024/01/31 01:18:59;;;;;;;8.43;1.15;;;5.40;99.90;;;;;;5024303;28;20494;-69
2024/01/31 01:21:25;;;;;;;5.30;0.82;;;5.40;99.90;;;;;;5023180;28;20050;-69
2024/01/31 01:23:54;;;;;;;7.97;1.00;;;5.50;99.90;;;;;;5024134;28;20478;-68
2024/01/31 01:26:19;;;;;;;6.57;1.10;;;5.40;99.90;;;;;;5024037;28;20580;-68
2024/01/31 01:28:45;;;;;;;9.75;1.10;;;5.40;99.90;;;;;;5024435;28;20037;-68
2024/01/31 01:31:12;;;;;;;2.67;0.65;;;5.30;99.90;;;;;;5022903;28;20049;-68
2024/01/31 01:33:38;;;;;;;8.27;0.70;;;5.30;99.90;;;;;;5024723;28;20050;-68
2024/01/31 01:36:04;;;;;;;5.68;0.80;;;5.50;99.90;;;;;;5007552;28;20114;-68
2024/01/31 01:38:30;;;;;;;5.90;0.80;;;5.30;99.90;;;;;;5023481;28;20073;-67
2024/01/31 01:40:55;;;;;;;6.18;0.90;;;5.30;99.90;;;;;;5022793;28;21911;-69
2024/01/31 01:43:23;;;;;;;7.28;1.00;;;5.30;99.90;;;;;;5023947;28;20057;-68
2024/01/31 01:45:50;;;;;;;7.13;1.10;;;5.30;99.90;;;;;;5007785;28;20437;-68
2024/01/31 01:48:16;;;;;;;7.65;1.00;;;5.30;99.90;;;;;;5024361;28;20060;-68
2024/01/31 01:50:42;;;;;;;7.15;0.98;;;5.30;99.90;;;;;;5024320;28;20118;-68
2024/01/31 01:53:09;;;;;;;3.65;0.93;;;5.30;99.90;;;;;;5007824;28;22167;-68
2024/01/31 01:55:35;;;;;;;9.43;1.23;;;5.30;99.90;;;;;;5023981;28;20417;-68
2024/01/31 01:58:01;;;;;;;8.82;0.68;;;5.30;99.90;;;;;;5021581;28;20041;-68
2024/01/31 02:00:28;;;;;;;7.20;1.30;;;5.30;99.90;;;;;;5022208;28;20049;-68
2024/01/31 02:02:53;;;;;;;10.02;1.00;;;5.30;99.90;;;;;;5005713;28;20045;-68
2024/01/31 02:05:20;;;;;;;6.07;0.75;;;5.30;99.90;;;;;;5006244;28;20060;-68
2024/01/31 02:07:45;;;;;;;4.85;0.98;;;5.20;99.90;;;;;;5006533;28;20050;-68
2024/01/31 02:10:11;;;;;;;6.53;0.85;;;5.20;99.90;;;;;;5006773;28;20724;-68
2024/01/31 02:12:37;;;;;;;4.57;1.10;;;5.20;99.90;;;;;;5023190;28;20042;-69
2024/01/31 02:15:03;;;;;;;8.13;0.95;;;5.20;99.90;;;;;;5023877;28;20131;-69
2024/01/31 02:17:30;;;;;;;6.63;0.75;;;5.20;99.90;;;;;;5007152;28;20048;-69
2024/01/31 02:19:55;;;;;;;6.22;1.00;;;5.20;99.90;;;;;;5006843;28;20116;-69
2024/01/31 02:22:21;;;;;;;6.45;0.85;;;5.20;99.90;;;;;;5022989;28;20132;-68
2024/01/31 02:24:47;;;;;;;7.35;1.10;;;5.10;99.90;;;;;;5021925;28;20033;-68
2024/01/31 02:27:13;;;;;;;7.82;1.00;;;5.10;99.90;;;;;;5007233;28;20041;-68
2024/01/31 02:29:39;;;;;;;4.93;0.70;;;5.10;99.90;;;;;;5005705;28;20427;-68
2024/01/31 02:32:06;;;;;;;9.07;1.02;;;5.10;99.90;;;;;;5019694;28;20043;-68
2024/01/31 02:34:32;;;;;;;6.50;0.77;;;5.10;99.90;;;;;;5022767;28;20049;-68
2024/01/31 02:36:58;;;;;;;5.43;0.70;;;5.00;99.90;;;;;;5022886;28;20116;-68
2024/01/31 02:39:24;;;;;;;6.47;0.90;;;5.00;99.90;;;;;;5004599;28;20128;-69
2024/01/31 02:41:51;;;;;;;7.95;1.48;;;5.00;99.90;;;;;;5006326;28;20045;-69
2024/01/31 02:44:18;;;;;;;8.88;1.10;;;4.90;99.90;;;;;;5021997;28;20132;-68
2024/01/31 02:46:44;;;;;;;8.15;1.17;;;5.20;99.90;;;;;;5020306;28;20045;-68
2024/01/31 02:49:10;;;;;;;4.35;0.75;;;4.90;99.90;;;;;;5022000;28;20049;-69
2024/01/31 02:51:36;;;;;;;5.20;0.80;;;4.90;99.90;;;;;;5022503;28;20041;-68
2024/01/31 02:54:01;;;;;;;6.13;1.13;;;4.90;99.90;;;;;;5022558;28;20051;-68
2024/01/31 02:56:27;;;;;;;5.95;0.93;;;4.90;99.90;;;;;;5023191;28;20041;-68
2024/01/31 02:58:53;;;;;;;6.70;1.00;;;6.00;99.90;;;;;;5020947;28;20041;-68
2024/01/31 03:01:19;;;;;;;7.85;1.10;;;4.80;99.90;;;;;;5021821;28;20041;-67
2024/01/31 03:03:45;;;;;;;6.07;0.80;;;4.80;99.90;;;;;;5005767;28;20053;-69
2024/01/31 03:06:11;;;;;;;4.25;0.88;;;4.80;99.90;;;;;;5021784;28;20041;-68
2024/01/31 03:08:37;;;;;;;9.55;1.42;;;4.70;99.90;;;;;;5021884;28;20071;-68
2024/01/31 03:11:02;;;;;;;11.30;1.13;;;4.90;99.90;;;;;;5022113;28;20041;-69
2024/01/31 03:13:28;;;;;;;7.45;0.95;;;4.80;99.90;;;;;;5022423;28;20056;-69
2024/01/31 03:15:54;;;;;;;8.45;0.90;;;4.70;99.90;;;;;;5022107;28;20041;-69
2024/01/31 03:18:20;;;;;;;6.90;1.05;;;4.70;99.90;;;;;;5022113;28;20051;-69
2024/01/31 03:20:45;;;;;;;6.85;0.98;;;5.40;99.90;;;;;;5044831;28;20609;-70
2024/01/31 03:23:12;;;;;;;9.57;1.20;;;4.80;99.90;;;;;;5021627;28;20059;-69
2024/01/31 03:25:37;;;;;;;5.60;0.93;;;6.00;99.90;;;;;;5021213;28;20766;-69
2024/01/31 03:28:04;;;;;;;8.35;1.08;;;4.70;99.90;;;;;;5039149;28;20041;-69
2024/01/31 03:30:29;;;;;;;9.50;1.08;;;4.70;99.90;;;;;;5021625;28;20060;-69
2024/01/31 03:32:56;;;;;;;12.18;1.00;;;4.60;99.90;;;;;;5021324;28;20468;-69
2024/01/31 03:35:22;;;;;;;11.98;0.90;;;4.60;99.90;;;;;;5022169;28;20056;-68
2024/01/31 03:37:47;;;;;;;7.28;1.00;;;4.70;99.90;;;;;;5021572;28;20048;-69
2024/01/31 03:40:13;;;;;;;5.32;1.00;;;4.60;99.90;;;;;;5005287;28;20139;-69
2024/01/31 03:42:39;;;;;;;5.60;1.00;;;4.60;99.90;;;;;;5022845;28;20052;-69
2024/01/31 03:45:05;;;;;;;9.38;1.20;;;4.50;99.90;;;;;;5022201;28;20041;-69
2024/01/31 03:47:34;;;;;;;3.78;0.82;;;4.50;99.90;;;;;;5023113;28;20752;-69
2024/01/31 03:49:59;;;;;;;9.20;1.00;;;4.60;99.90;;;;;;5022322;28;20045;-69
2024/01/31 03:52:25;;;;;;;6.47;0.70;;;4.60;99.90;;;;;;5005263;28;20055;-69
2024/01/31 03:54:51;;;;;;;11.80;1.33;;;4.50;99.90;;;;;;5004528;28;20045;-68
2024/01/31 03:57:17;;;;;;;6.28;0.80;;;4.50;99.90;;;;;;5022681;28;20045;-69
2024/01/31 03:59:43;;;;;;;5.32;0.70;;;4.50;99.90;;;;;;5019794;28;20045;-69
2024/01/31 04:02:08;;;;;;;7.57;0.93;;;4.40;99.90;;;;;;5021699;28;20040;-69
2024/01/31 04:04:34;;;;;;;4.65;0.80;;;4.50;99.90;;;;;;5004147;28;20081;-69
2024/01/31 04:07:00;;;;;;;10.05;1.02;;;4.40;99.90;;;;;;5019614;28;20038;-69
2024/01/31 04:09:25;;;;;;;8.93;1.10;;;4.40;99.90;;;;;;5021787;28;20054;-69
2024/01/31 04:11:52;;;;;;;3.85;0.80;;;4.30;99.90;;;;;;5022050;28;20418;-69
2024/01/31 04:14:18;;;;;;;3.60;0.80;;;4.30;99.90;;;;;;5023036;28;20411;-69
2024/01/31 04:16:44;;;;;;;9.65;0.90;;;4.30;99.90;;;;;;5022522;28;20052;-67
2024/01/31 04:19:10;;;;;;;5.03;0.80;;;4.30;99.90;;;;;;5000878;28;20116;-68
2024/01/31 04:21:35;;;;;;;5.82;0.93;;;4.20;99.90;;;;;;5002803;28;20422;-69
2024/01/31 04:24:01;;;;;;;4.68;0.80;;;4.20;99.90;;;;;;5018715;28;20041;-69
2024/01/31 04:26:27;;;;;;;7.65;1.02;;;4.20;99.90;;;;;;5005822;28;20069;-69
2024/01/31 04:28:52;;;;;;;6.72;0.80;;;4.10;99.90;;;;;;5025297;28;20056;-69
2024/01/31 04:31:18;;;;;;;8.80;1.20;;;4.20;99.90;;;;;;5025541;28;20045;-69
2024/01/31 04:33:44;;;;;;;5.47;0.95;;;4.10;99.90;;;;;;5023871;28;20053;-68
2024/01/31 04:36:10;;;;;;;6.38;1.02;;;4.10;99.90;;;;;;5007706;28;20045;-69
2024/01/31 04:38:36;;;;;;;4.05;0.70;;;4.10;99.90;;;;;;5024063;28;20041;-69
2024/01/31 04:41:03;;;;;;;5.85;0.80;;;4.10;99.90;;;;;;5024912;28;20277;-69
2024/01/31 04:43:29;;;;;;;5.22;0.82;;;4.10;99.90;;;;;;5008292;28;20084;-68
2024/01/31 04:45:55;;;;;;;2.88;0.65;;;4.80;99.90;;;;;;5023178;28;20041;-68
2024/01/31 04:48:21;;;;;;;6.65;0.80;;;4.00;99.90;;;;;;5023258;28;20107;-67
2024/01/31 04:50:46;;;;;;;6.70;0.85;;;4.00;99.90;;;;;;5024906;28;20041;-68
2024/01/31 04:53:12;;;;;;;3.88;0.55;;;4.00;99.90;;;;;;5024744;28;20053;-68
2024/01/31 04:55:38;;;;;;;6.40;1.00;;;4.00;99.90;;;;;;5024060;28;20053;-68
2024/01/31 04:58:04;;;;;;;5.60;0.98;;;4.00;99.90;;;;;;5025117;28;20080;-69
2024/01/31 05:00:30;;;;;;;5.32;0.93;;;4.00;99.90;;;;;;5025002;28;20049;-68
2024/01/31 05:02:55;;;;;;;2.60;0.57;;;4.00;99.90;;;;;;5007804;28;20099;-69
2024/01/31 05:05:21;;;;;;;7.72;0.90;;;4.20;99.90;;;;;;5024760;28;20291;-70
2024/01/31 05:07:47;;;;;;;5.45;1.00;;;4.00;99.90;;;;;;5024229;28;20060;-69
2024/01/31 05:10:13;;;;;;;2.63;0.60;;;3.90;99.90;;;;;;5007775;28;20098;-69
2024/01/31 05:12:38;;;;;;;11.27;1.00;;;3.90;99.90;;;;;;5024721;28;20056;-71
2024/01/31 05:15:05;;;;;;;5.75;0.80;;;3.90;99.90;;;;;;5023917;28;20056;-71
2024/01/31 05:17:31;;;;;;;7.53;1.02;;;3.90;99.90;;;;;;5022771;28;20041;-71
2024/01/31 05:19:57;;;;;;;9.38;0.90;;;3.90;99.90;;;;;;5024330;28;20045;-69
2024/01/31 05:22:23;;;;;;;7.20;1.00;;;3.90;99.90;;;;;;5023634;28;20050;-70
2024/01/31 05:24:48;;;;;;;6.07;1.05;;;3.90;99.90;;;;;;5022852;28;20045;-69
2024/01/31 05:27:14;;;;;;;8.88;0.95;;;3.90;99.90;;;;;;5004640;28;20049;-69
2024/01/31 05:29:40;;;;;;;6.97;0.82;;;3.90;99.90;;;;;;5022404;28;20060;-71
2024/01/31 05:32:06;;;;;;;2.40;0.65;;;3.90;99.90;;;;;;5020505;28;20044;-68
2024/01/31 05:34:32;;;;;;;5.32;0.75;;;3.90;99.90;;;;;;5020520;28;20057;-68
2024/01/31 05:36:57;;;;;;;5.75;1.23;;;4.00;99.90;;;;;;5002101;28;20046;-70
2024/01/31 05:39:23;;;;;;;6.55;1.08;;;3.90;99.90;;;;;;5018380;28;20057;-70
2024/01/31 05:41:49;;;;;;;5.88;1.25;;;3.90;99.90;;;;;;5033953;28;20850;-70
2024/01/31 05:44:15;;;;;;;5.15;0.80;;;3.90;99.90;;;;;;5021757;28;20088;-70
2024/01/31 05:46:41;;;;;;;8.98;1.17;;;3.90;99.90;;;;;;5023566;28;20753;-70
2024/01/31 05:49:06;;;;;;;7.15;1.05;;;4.00;99.90;;;;;;5020916;28;20144;-70
2024/01/31 05:51:32;;;;;;;6.55;1.42;;;4.00;99.90;;;;;;5021880;28;20467;-70
2024/01/31 05:53:58;;;;;;;7.03;1.05;;;3.90;99.90;;;;;;5023310;28;20041;-70
2024/01/31 05:56:23;;;;;;;4.82;1.00;;;3.90;99.90;;;;;;5023229;28;20045;-70
2024/01/31 05:58:49;;;;;;;8.15;1.00;;;3.90;99.90;;;;;;5023255;28;20048;-68
2024/01/31 06:01:15;;;;;;;6.65;0.93;;;3.90;99.90;;;;;;5018478;28;20084;-68
2024/01/31 06:03:41;;;;;;;6.75;1.10;;;3.90;99.90;;;;;;5022659;28;20057;-69
2024/01/31 06:06:06;;;;;;;8.57;0.93;;;4.00;99.90;;;;;;5021294;28;20045;-68
2024/01/31 06:08:35;;;;;;;8.55;1.00;;;4.30;99.90;;;;;;5021978;28;20061;-68
2024/01/31 06:11:06;;;;;;;5.15;1.08;;;3.90;99.90;;;;;;5021413;28;20045;-68
2024/01/31 06:13:32;;;;;;;8.18;1.05;;;3.90;99.90;;;;;;5006349;28;20115;-69
2024/01/31 06:15:58;;;;;;;8.85;1.02;;;4.00;99.90;;;;;;5022725;28;20029;-69
2024/01/31 06:18:24;;;;;;;7.68;1.10;;;4.00;99.90;;;;;;5023037;28;20145;-69
2024/01/31 06:20:50;;;;;;;6.78;1.13;;;4.00;99.90;;;;;;5006364;28;20056;-69
2024/01/31 06:23:16;;;;;;;7.07;1.33;;;4.00;99.90;;;;;;5020979;28;20055;-69
2024/01/31 06:25:42;;;;;;;4.97;1.08;;;4.00;99.90;;;;;;5014777;28;20045;-68
2024/01/31 06:28:08;;;;;;;9.63;1.27;;;4.00;99.90;;;;;;5034348;28;20045;-69
2024/01/31 06:30:41;;;;;;;7.80;1.27;;;4.00;99.90;;;;;;5022170;28;20060;-68
2024/01/31 06:33:14;;;;;;;9.43;1.38;;;4.00;99.90;;;;;;5021323;28;20079;-68
2024/01/31 06:35:41;;;;;;;12.63;2.00;;;4.00;99.90;;;;;;5016394;28;20507;-69
2024/01/31 06:38:07;;;;;;;18.50;1.55;;;4.00;99.90;;;;;;5017868;28;20045;-69
2024/01/31 06:40:33;;;;;;;7.32;1.50;;;4.00;99.90;;;;;;5016075;28;20056;-69
2024/01/31 06:42:59;;;;;;;9.95;1.38;;;4.00;99.90;;;;;;5014021;28;20085;-69
2024/01/31 06:45:25;;;;;;;10.48;1.55;;;4.00;99.90;;;;;;4999990;28;20058;-69
2024/01/31 06:47:54;;;;;;;9.88;1.13;;;4.00;99.90;;;;;;5002894;28;20151;-69
2024/01/31 06:50:23;;;;;;;13.32;1.48;;;4.00;99.90;;;;;;5012977;28;20111;-69
2024/01/31 06:52:49;;;;;;;7.07;1.05;;;4.00;99.90;;;;;;5037455;28;20054;-69
2024/01/31 06:55:15;;;;;;;11.20;1.33;;;4.20;99.90;;;;;;5040626;28;20049;-68
2024/01/31 06:57:42;;;;;;;12.82;1.80;;;4.00;99.90;;;;;;5004714;28;20473;-68
2024/01/31 07:00:11;;;;;;;10.23;1.17;;;4.00;99.90;;;;;;5020533;28;20144;-68
2024/01/31 07:02:37;;;;;;;9.27;1.67;;;4.00;99.90;;;;;;5016969;28;20233;-69
2024/01/31 07:05:04;;;;;;;10.05;1.30;;;4.00;99.90;;;;;;5003850;28;20049;-69
2024/01/31 07:07:30;;;;;;;8.75;1.30;;;4.90;99.90;;;;;;5020301;28;20041;-69
2024/01/31 07:09:56;;;;;;;10.07;1.85;;;4.00;99.90;;;;;;5015983;28;20402;-68
2024/01/31 07:12:22;;;;;;;6.15;1.13;;;4.00;99.90;;;;;;5016490;28;20050;-69
2024/01/31 07:14:47;;;;;;;6.45;1.25;;;4.00;99.90;;;;;;5004148;28;20119;-69
2024/01/31 07:17:13;;;;;;;8.48;1.35;;;4.00;99.90;;;;;;5022050;28;20041;-69
2024/01/31 07:19:42;;;;;;;10.65;1.65;;;4.00;99.90;;;;;;5022486;28;20458;-69
2024/01/31 07:22:09;;;;;;;9.52;1.55;;;4.10;99.90;;;;;;5022247;28;20060;-69
2024/01/31 07:24:34;;;;;;;7.82;1.50;;;4.10;99.90;;;;;;5020466;28;20045;-69
2024/01/31 07:27:02;;;;;;;7.93;1.45;;;4.10;99.90;;;;;;5014247;28;20124;-69
2024/01/31 07:29:28;;;;;;;10.48;1.33;;;4.10;99.90;;;;;;4996102;28;20063;-69
2024/01/31 07:31:54;;;;;;;12.65;1.70;;;4.10;99.90;;;;;;5002206;28;20049;-68
2024/01/31 07:34:20;;;;;;;8.68;1.58;;;4.10;99.90;;;;;;5002687;28;20047;-71
2024/01/31 07:36:45;;;;;;;15.35;1.90;;;4.10;99.90;;;;;;5010257;28;20410;-70
2024/01/31 07:39:11;;;;;;;5.45;1.15;;;4.10;99.90;;;;;;4996429;28;20077;-69
2024/01/31 07:41:37;;;;;;;13.55;1.67;;;4.10;99.90;;;;;;5012984;28;20057;-69
2024/01/31 07:44:03;;;;;;;7.57;1.30;;;4.10;99.90;;;;;;5018292;28;21428;-69
2024/01/31 07:46:29;;;;;;;7.78;1.70;;;4.10;99.90;;;;;;5017980;28;20081;-68
2024/01/31 07:48:55;;;;;;;9.82;1.60;;;4.60;99.90;;;;;;5017706;28;20053;-68
2024/01/31 07:51:21;;;;;;;9.20;1.85;;;4.10;99.90;;;;;;5003292;28;20052;-68
2024/01/31 07:53:47;;;;;;;9.30;1.60;;;4.10;99.90;;;;;;5019421;28;20040;-68
2024/01/31 07:56:13;;;;;;;9.15;2.15;;;4.10;99.90;;;;;;5018921;28;20046;-69
2024/01/31 07:58:38;;;;;;;9.82;1.75;;;4.10;99.90;;;;;;5017182;28;20049;-69
2024/01/31 08:01:04;;;;;;;8.27;2.10;;;4.10;99.90;;;;;;5015952;28;20041;-67
2024/01/31 08:03:31;;;;;;;6.65;2.13;;;4.30;99.90;;;;;;5005869;28;20045;-69
2024/01/31 08:05:59;;;;;;;10.68;2.08;;;4.10;99.90;;;;;;5019382;28;20037;-69
2024/01/31 08:08:25;;;;;;;5.40;1.63;;;4.20;99.90;;;;;;4998589;28;20418;-70
2024/01/31 08:10:52;;;;;;;8.18;2.00;;;4.50;99.90;;;;;;5014908;28;20052;-70
2024/01/31 08:13:18;;;;;;;7.18;2.17;;;4.80;99.90;;;;;;5019110;28;20443;-68
2024/01/31 08:15:44;;;;;;;12.07;1.85;;;4.20;99.90;;;;;;5003816;28;20042;-69
2024/01/31 08:18:09;;;;;;;7.07;1.92;;;4.20;99.90;;;;;;5022800;28;20505;-68
2024/01/31 08:20:35;;;;;;;7.82;1.95;;;4.20;99.90;;;;;;5022395;28;20088;-69
2024/01/31 08:23:02;;;;;;;5.85;1.80;;;4.20;99.90;;;;;;5017912;28;20048;-68
2024/01/31 08:25:28;;;;;;;10.35;2.40;;;4.40;99.90;;;;;;5021586;28;20841;-69
2024/01/31 08:27:53;;;;;;;11.13;2.63;;;4.20;99.90;;;;;;5004296;28;20044;-68
2024/01/31 08:30:21;;;;;;;4.50;1.88;;;4.20;99.90;;;;;;5003032;28;20048;-69
2024/01/31 08:32:47;;;;;;;7.75;2.20;;;4.30;99.90;;;;;;5024918;28;20045;-68
2024/01/31 08:35:12;;;;;;;8.23;2.42;;;4.20;99.90;;;;;;5020924;28;20042;-69
2024/01/31 08:37:39;;;;;;;12.27;2.63;;;4.70;99.90;;;;;;5023588;28;20045;-69
2024/01/31 08:40:06;;;;;;;7.43;2.72;;;4.30;99.90;;;;;;5006448;28;20052;-69
2024/01/31 08:42:33;;;;;;;13.05;2.80;;;4.30;99.90;;;;;;5025716;28;20068;-69
2024/01/31 08:44:59;;;;;;;9.25;3.10;;;4.30;99.90;;;;;;5023514;28;20049;-68
2024/01/31 08:47:24;;;;;;;7.70;3.15;;;4.30;99.90;;;;;;5021634;28;20064;-70
2024/01/31 08:49:50;;;;;;;9.20;3.42;;;4.30;99.90;;;;;;5024661;28;20041;-69
2024/01/31 08:52:16;;;;;;;11.15;3.25;;;4.40;99.90;;;;;;5021776;28;20048;-70
2024/01/31 08:54:42;;;;;;;9.85;3.53;;;4.40;99.90;;;;;;5022587;28;20045;-70
2024/01/31 08:57:08;;;;;;;10.18;3.38;;;4.40;99.90;;;;;;5022603;28;20045;-69
2024/01/31 08:59:34;;;;;;;8.95;3.35;;;4.40;99.90;;;;;;5040071;28;20056;-69
2024/01/31 09:01:59;;;;;;;10.23;3.30;;;4.50;99.90;;;;;;5018192;28;20029;-69
2024/01/31 09:04:25;;;;;;;10.07;3.78;;;4.40;99.90;;;;;;5021598;28;20111;-69
2024/01/31 09:06:51;;;;;;;10.60;3.85;;;4.50;99.90;;;;;;5019826;28;20084;-70
2024/01/31 09:09:17;;;;;;;9.45;3.88;;;4.70;99.90;;;;;;5024025;28;20052;-67
2024/01/31 09:11:42;;;;;;;11.10;4.00;;;4.50;99.90;;;;;;5020301;28;20045;-69
2024/01/31 09:14:08;;;;;;;9.50;3.85;;;4.50;99.90;;;;;;5015931;28;20038;-68
2024/01/31 09:16:34;;;;;;;10.20;4.55;;;4.60;99.90;;;;;;5021559;28;20239;-69
2024/01/31 09:19:01;;;;;;;9.25;4.20;;;4.60;99.90;;;;;;5022015;28;20053;-69
2024/01/31 09:21:27;;;;;;;8.73;4.32;;;4.60;99.90;;;;;;5018676;28;20056;-69
2024/01/31 09:23:56;;;;;;;14.45;4.60;;;4.60;99.90;;;;;;5021884;28;20092;-69
2024/01/31 09:26:23;;;;;;;10.77;5.28;;;4.60;99.90;;;;;;5016214;28;20116;-69
2024/01/31 09:28:49;;;;;;;11.63;4.93;;;4.70;99.90;;;;;;5012798;28;20128;-69
2024/01/31 09:31:25;;;;;;;9.70;4.80;;;4.70;99.90;;;;;;5006480;28;20049;-69
2024/01/31 09:33:54;;;;;;;10.85;5.30;;;4.70;99.90;;;;;;5005390;28;20080;-69
2024/01/31 09:36:20;;;;;;;13.35;5.55;;;5.10;99.90;;;;;;5007052;28;20051;-69
2024/01/31 09:38:47;;;;;;;14.98;6.55;;;5.40;99.90;;;;;;5024094;28;20092;-69
2024/01/31 09:41:15;;;;;;;10.02;6.03;;;4.80;99.90;;;;;;5021878;28;20053;-69
2024/01/31 09:43:41;;;;;;;11.38;6.93;;;4.90;99.90;;;;;;5007271;28;20593;-69
2024/01/31 09:46:07;;;;;;;13.13;7.35;;;4.90;99.90;;;;;;5019036;28;20406;-70
2024/01/31 09:48:33;;;;;;;12.15;6.82;;;5.20;99.90;;;;;;5006942;28;20076;-69
2024/01/31 09:51:02;;;;;;;12.57;7.20;;;5.00;99.90;;;;;;5020065;28;20049;-69
2024/01/31 09:53:33;;;;;;;12.13;7.30;;;4.90;99.90;;;;;;5016948;28;20099;-73
2024/01/31 09:55:59;;;;;;;15.25;8.48;;;5.00;99.90;;;;;;5041511;28;20049;-67
2024/01/31 09:58:26;;;;;;;13.15;7.70;;;5.00;99.90;;;;;;5000325;28;20140;-68
2024/01/31 10:00:53;;;;;;;11.82;7.05;;;5.20;99.90;;;;;;5036493;28;20712;-68
2024/01/31 10:03:18;;;;;;;10.98;7.07;;;5.10;99.90;;;;;;5006608;28;20056;-68
2024/01/31 10:05:45;;;;;;;12.32;7.63;;;5.10;99.90;;;;;;5020058;28;20049;-69
2024/01/31 10:08:10;;;;;;;12.25;7.78;;;5.10;99.90;;;;;;5020033;28;20878;-69
2024/01/31 10:10:37;;;;;;;11.80;7.82;;;5.20;99.90;;;;;;5019646;28;20053;-69
2024/01/31 10:13:05;;;;;;;13.70;8.07;;;5.10;99.90;;;;;;5019023;28;20076;-68
2024/01/31 10:15:31;;;;;;;15.57;8.57;;;5.50;99.90;;;;;;5019072;28;20065;-69
2024/01/31 10:17:58;;;;;;;15.15;8.18;;;5.40;99.90;;;;;;5020337;28;20041;-68
2024/01/31 10:20:24;;;;;;;12.43;7.82;;;5.20;99.90;;;;;;5022905;28;20053;-69
2024/01/31 10:22:51;;;;;;;12.15;7.90;;;5.20;99.90;;;;;;5019992;28;20034;-69
2024/01/31 10:25:18;;;;;;;15.25;7.60;;;5.20;99.90;;;;;;5016196;28;20037;-68
2024/01/31 10:27:47;;;;;;;14.75;7.85;;;5.20;99.90;;;;;;5022024;28;20045;-69
2024/01/31 10:30:14;;;;;;;12.75;7.40;;;5.50;99.90;;;;;;5005762;28;20135;-69
2024/01/31 10:32:40;;;;;;;13.50;7.35;;;5.30;99.90;;;;;;5021745;28;20055;-70
2024/01/31 10:35:07;;;;;;;13.98;7.80;;;5.30;99.90;;;;;;5021700;28;20041;-69
2024/01/31 10:37:34;;;;;;;12.93;7.10;;;5.30;99.90;;;;;;5021107;28;20041;-69
2024/01/31 10:40:01;;;;;;;12.52;7.18;;;5.40;99.90;;;;;;5018950;28;20075;-69
2024/01/31 10:42:26;;;;;;;11.40;6.72;;;5.40;99.90;;;;;;5021666;28;20056;-70
2024/01/31 10:44:53;;;;;;;13.43;7.65;;;5.40;99.90;;;;;;5022141;28;20045;-70
2024/01/31 10:47:19;;;;;;;12.15;7.53;;;5.40;99.90;;;;;;5017907;28;20052;-69
2024/01/31 10:49:45;;;;;;;12.00;6.90;;;5.50;99.90;;;;;;5002850;28;20045;-68
2024/01/31 10:52:14;;;;;;;12.60;7.22;;;5.50;99.90;;;;;;5019446;28;20088;-70
2024/01/31 10:54:54;;;;;;;11.60;6.97;;;5.50;99.90;;;;;;5013163;28;20154;-69
2024/01/31 10:57:21;;;;;;;11.40;6.78;;;5.50;99.90;;;;;;5015775;28;20046;-68
2024/01/31 10:59:51;;;;;;;12.95;7.32;;;5.50;99.90;;;;;;5002535;28;20219;-68
2024/01/31 11:02:19;;;;;;;13.68;7.25;;;5.60;99.90;;;;;;4995410;28;20077;-69
2024/01/31 11:04:45;;;;;;;12.60;7.22;;;5.60;99.90;;;;;;5022076;28;20053;-68
2024/01/31 11:07:16;;;;;;;11.77;6.57;;;5.60;99.90;;;;;;5022313;28;20675;-68
2024/01/31 11:09:42;;;;;;;12.20;6.50;;;5.60;99.90;;;;;;5004394;28;20100;-69
2024/01/31 11:12:16;;;;;;;12.65;6.60;;;5.60;99.90;;;;;;5020934;28;20041;-68
2024/01/31 11:14:43;;;;;;;12.45;6.40;;;5.70;99.90;;;;;;5021248;28;20053;-69
2024/01/31 11:17:12;;;;;;;10.40;6.22;;;5.70;99.90;;;;;;5019296;28;20181;-69
2024/01/31 11:19:55;;;;;;;11.05;5.97;;;5.70;99.90;;;;;;5021517;28;20049;-68
2024/01/31 11:22:21;;;;;;;10.70;5.68;;;5.70;99.90;;;;;;5020448;28;20041;-69
2024/01/31 11:24:52;;;;;;;9.88;5.38;;;5.70;99.90;;;;;;5044279;28;20069;-68
2024/01/31 11:27:19;;;;;;;10.25;6.35;;;5.70;99.90;;;;;;5035944;28;20061;-69
2024/01/31 11:29:50;;;;;;;9.55;5.50;;;6.10;99.90;;;;;;5003568;28;20075;-69
2024/01/31 11:32:23;;;;;;;10.45;5.47;;;5.80;99.90;;;;;;5019931;28;20048;-70
2024/01/31 11:35:05;;;;;;;10.60;5.55;;;5.80;99.90;;;;;;5021670;28;20037;-68
2024/01/31 11:37:32;;;;;;;10.38;5.72;;;5.80;99.90;;;;;;5026526;28;20060;-69
2024/01/31 11:39:57;;;;;;;10.95;5.82;;;5.80;99.90;;;;;;5026804;28;20042;-68
2024/01/31 11:42:24;;;;;;;10.05;5.63;;;5.90;99.90;;;;;;5026768;28;20104;-69
2024/01/31 11:44:53;;;;;;;10.07;5.40;;;5.90;99.90;;;;;;5025178;28;20046;-68
2024/01/31 11:47:19;;;;;;;9.00;5.05;;;5.90;99.90;;;;;;5034761;28;20040;-68
2024/01/31 11:49:45;;;;;;;11.50;5.40;;;5.90;99.90;;;;;;5024249;28;20486;-69
2024/01/31 11:52:11;;;;;;;9.93;5.30;;;6.60;99.90;;;;;;5009545;28;20075;-68
2024/01/31 11:54:36;;;;;;;11.15;5.05;;;6.00;99.90;;;;;;5009814;28;20558;-68
2024/01/31 11:57:02;;;;;;;9.73;5.32;;;6.00;99.90;;;;;;5026739;28;20045;-68
2024/01/31 11:59:28;;;;;;;9.15;4.97;;;6.00;99.90;;;;;;5026323;28;20052;-68
2024/01/31 12:01:55;;;;;;;11.30;6.55;;;6.40;99.90;;;;;;5025885;28;20077;-69
2024/01/31 12:04:24;;;;;;;9.75;5.43;;;6.00;99.90;;;;;;5024076;28;20041;-69
2024/01/31 12:07:01;;;;;;;13.35;5.88;;;6.00;99.90;;;;;;5025760;28;20038;-69
2024/01/31 12:09:27;;;;;;;11.20;6.18;;;6.00;99.90;;;;;;5031789;28;20050;-68
2024/01/31 12:11:52;;;;;;;13.20;6.25;;;6.10;99.90;;;;;;5023810;28;20052;-69
2024/01/31 12:14:18;;;;;;;9.98;6.18;;;6.00;99.90;;;;;;5023968;28;20045;-69
2024/01/31 12:16:44;;;;;;;10.45;5.90;;;6.70;99.90;;;;;;5024007;28;20752;-69
2024/01/31 12:19:10;;;;;;;11.57;6.25;;;6.10;99.90;;;;;;5022668;28;20156;-69
2024/01/31 12:21:42;;;;;;;10.43;5.88;;;6.10;99.90;;;;;;5023837;28;20049;-71
2024/01/31 12:24:08;;;;;;;10.50;6.13;;;6.10;99.90;;;;;;5004871;28;20044;-69
2024/01/31 12:26:34;;;;;;;10.70;6.32;;;6.10;99.90;;;;;;5024741;28;20045;-69
2024/01/31 12:29:00;;;;;;;10.75;5.97;;;6.10;99.90;;;;;;5007200;28;20048;-69
2024/01/31 12:31:26;;;;;;;10.52;5.78;;;6.50;99.90;;;;;;5022595;28;20045;-69
2024/01/31 12:33:53;;;;;;;12.18;7.35;;;6.10;99.90;;;;;;5023754;28;20045;-69
2024/01/31 12:36:22;;;;;;;11.20;6.35;;;6.10;99.90;;;;;;5025054;28;20391;-69
2024/01/31 12:38:47;;;;;;;10.55;5.90;;;6.10;99.90;;;;;;5005859;28;20100;-69
2024/01/31 12:41:13;;;;;;;13.02;6.38;;;6.10;99.90;;;;;;5024964;28;20510;-69
2024/01/31 12:43:39;;;;;;;10.35;5.60;;;6.10;99.90;;;;;;5024646;28;20124;-69
2024/01/31 12:46:04;;;;;;;11.88;5.63;;;6.20;99.90;;;;;;5024688;28;20656;-68
2024/01/31 12:48:30;;;;;;;10.13;6.10;;;6.10;99.90;;;;;;5008735;28;20127;-69